Time;durP1;ratioP1;P1;durP2;ratioP2;P2;SDS_P1;SDS_P2;PMS_P1;PMS_P2;Temp;Humidity;BMP_temperature;BMP_pressure;BME280_temperature;BME280_humidity;BME280_pressure;Samples;Min_cycle;Max_cycle;Signal;HPM_P1;HPM_P2
2022/06/11 00:01:31;;;;;;;;;;;20.10;70.40;;;;;;5007346;28;19928;-80
2022/06/11 00:03:58;;;;;;;;;;;20.10;70.40;;;;;;5018368;28;19920;-79
2022/06/11 00:06:25;;;;;;;;;;;20.00;70.90;;;;;;5033634;28;19963;-80
2022/06/11 00:08:51;;;;;;;;;;;20.00;71.50;;;;;;5030047;28;19968;-80
2022/06/11 00:11:17;;;;;;;;;;;19.90;71.40;;;;;;5015986;28;19921;-79
2022/06/11 00:13:42;;;;;;;;;;;19.90;71.30;;;;;;5014716;28;19909;-80
2022/06/11 00:16:08;;;;;;;;;;;19.90;71.70;;;;;;5010970;28;20285;-79
2022/06/11 00:18:34;;;;;;;;;;;19.90;71.30;;;;;;5007236;28;19928;-80
2022/06/11 00:21:00;;;;;;;;;;;19.90;71.20;;;;;;5014479;28;20391;-79
2022/06/11 00:23:26;;;;;;;;;;;19.90;71.40;;;;;;5010684;28;19980;-80
2022/06/11 00:25:52;;;;;;;;;;;19.90;71.70;;;;;;5014075;28;19997;-80
2022/06/11 00:28:18;;;;;;;;;;;19.90;71.30;;;;;;5014670;28;20011;-80
2022/06/11 00:30:43;;;;;;;;;;;19.90;71.00;;;;;;5011926;28;20307;-79
2022/06/11 00:33:09;;;;;;;;;;;19.90;70.70;;;;;;5021501;28;19909;-80
2022/06/11 00:35:36;;;;;;;;;;;20.00;70.90;;;;;;5028949;28;19925;-80
2022/06/11 00:38:02;;;;;;;;;;;20.00;70.90;;;;;;5029863;28;20352;-80
2022/06/11 00:40:29;;;;;;;;;;;20.00;70.90;;;;;;5030274;28;19960;-80
2022/06/11 00:42:55;;;;;;;;;;;20.00;71.00;;;;;;5033134;28;20746;-80
2022/06/11 00:45:23;;;;;;;;;;;20.00;70.60;;;;;;5024543;28;19921;-79
2022/06/11 00:47:59;;;;;;;;;;;20.00;71.00;;;;;;5020681;28;19960;-80
2022/06/11 00:50:31;;;;;;;;;;;19.90;71.50;;;;;;5031892;28;19924;-80
2022/06/11 00:52:57;;;;;;;;;;;19.90;71.10;;;;;;5018514;28;19913;-80
2022/06/11 00:55:26;;;;;;;;;;;19.90;71.20;;;;;;5033946;28;19941;-80
2022/06/11 00:58:02;;;;;;;;;;;19.90;71.50;;;;;;5016738;28;20475;-80
2022/06/11 01:00:33;;;;;;;;;;;20.00;70.90;;;;;;5031828;28;19913;-79
2022/06/11 01:02:59;;;;;;;;;;;20.00;71.00;;;;;;5015805;28;19914;-80
2022/06/11 01:05:27;;;;;;;;;;;19.90;71.80;;;;;;5014015;28;19924;-80
2022/06/11 01:08:00;;;;;;;;;;;19.90;72.60;;;;;;5027490;28;20281;-81
2022/06/11 01:10:26;;;;;;;;;;;19.80;72.80;;;;;;5023035;28;19921;-79
2022/06/11 01:12:59;;;;;;;;;;;19.80;72.20;;;;;;5035461;28;19924;-80
2022/06/11 01:15:38;;;;;;;;;;;19.80;72.70;;;;;;5034244;28;19924;-80
2022/06/11 01:18:16;;;;;;;;;;;19.80;72.50;;;;;;5033841;28;19921;-80
2022/06/11 01:21:00;;;;;;;;;;;19.80;72.20;;;;;;5015507;28;19913;-81
2022/06/11 01:23:46;;;;;;;;;;;19.80;71.90;;;;;;5022322;28;19945;-81
2022/06/11 01:26:20;;;;;;;;;;;19.80;71.80;;;;;;5032771;28;20379;-81
2022/06/11 01:29:05;;;;;;;;;;;19.80;72.90;;;;;;5010881;28;19941;-81
2022/06/11 01:31:35;;;;;;;;;;;19.80;73.10;;;;;;5015046;28;20316;-81
2022/06/11 01:34:15;;;;;;;;;;;19.80;72.60;;;;;;5015882;28;19921;-80
2022/06/11 01:36:43;;;;;;;;;;;19.70;72.30;;;;;;5034553;28;19913;-81
2022/06/11 01:39:30;;;;;;;;;;;19.80;72.50;;;;;;5015797;28;20348;-81
2022/06/11 01:42:25;;;;;;;;;;;19.70;72.70;;;;;;5021936;28;19962;-82
2022/06/11 01:45:12;;;;;;;;;;;19.80;71.90;;;;;;5031005;23;19929;-79
2022/06/11 01:47:43;;;;;;;;;;;19.80;72.50;;;;;;5020598;28;19920;-78
2022/06/11 01:50:35;;;;;;;;;;;19.70;73.00;;;;;;5030728;28;19925;-80
2022/06/11 01:53:19;;;;;;;;;;;19.70;72.90;;;;;;5020909;28;19917;-79
2022/06/11 01:56:00;;;;;;;;;;;19.70;73.00;;;;;;5033319;28;19914;-80
2022/06/11 01:58:31;;;;;;;;;;;19.80;73.20;;;;;;5030508;28;20036;-79
2022/06/11 02:01:16;;;;;;;;;;;19.60;73.30;;;;;;5012132;28;19921;-79
2022/06/11 02:03:52;;;;;;;;;;;19.60;73.50;;;;;;5028198;28;20327;-80
2022/06/11 02:06:28;;;;;;;;;;;;;;;;;;;;;
2022/06/11 02:09:13;;;;;;;;;;;19.60;74.10;;;;;;5033756;28;20147;-82
2022/06/11 02:11:44;;;;;;;;;;;19.60;74.80;;;;;;5014879;28;19996;-80
2022/06/11 02:14:09;;;;;;;;;;;19.60;74.70;;;;;;5008937;28;19920;-80
2022/06/11 02:16:38;;;;;;;;;;;19.50;74.50;;;;;;5024786;28;20084;-80
2022/06/11 02:19:07;;;;;;;;;;;19.50;74.60;;;;;;5012116;28;20356;-79
2022/06/11 02:21:34;;;;;;;;;;;19.40;74.80;;;;;;5027157;28;20562;-80
2022/06/11 02:24:11;;;;;;;;;;;19.30;75.20;;;;;;5031708;28;20008;-79
2022/06/11 02:26:38;;;;;;;;;;;19.30;74.90;;;;;;5027202;28;19917;-79
2022/06/11 02:29:05;;;;;;;;;;;19.30;75.10;;;;;;5022909;28;20024;-79
2022/06/11 02:31:33;;;;;;;;;;;19.30;74.40;;;;;;5025179;28;19921;-78
2022/06/11 02:34:03;;;;;;;;;;;19.30;74.60;;;;;;5022760;28;20456;-79
2022/06/11 02:36:30;;;;;;;;;;;19.20;74.80;;;;;;5011652;28;19921;-79
2022/06/11 02:38:56;;;;;;;;;;;19.20;74.80;;;;;;5012152;28;19913;-80
2022/06/11 02:41:24;;;;;;;;;;;19.20;75.00;;;;;;5013038;28;19920;-80
2022/06/11 02:43:50;;;;;;;;;;;19.20;74.80;;;;;;5029006;28;20407;-80
2022/06/11 02:49:00;;;;;;;;;;;19.20;75.20;;;;;;5027651;28;19996;-79
2022/06/11 02:51:28;;;;;;;;;;;19.10;75.40;;;;;;5028943;28;20013;-80
2022/06/11 02:53:53;;;;;;;;;;;19.10;76.00;;;;;;5027527;28;19948;-80
2022/06/11 02:56:19;;;;;;;;;;;19.00;75.80;;;;;;5009291;28;20493;-79
2022/06/11 02:58:45;;;;;;;;;;;19.00;76.50;;;;;;5026171;28;20273;-79
2022/06/11 03:01:11;;;;;;;;;;;18.90;76.90;;;;;;5032711;28;19917;-80
2022/06/11 03:03:37;;;;;;;;;;;18.80;77.00;;;;;;5028222;28;20012;-79
2022/06/11 03:06:03;;;;;;;;;;;18.80;77.30;;;;;;5007918;28;20373;-79
2022/06/11 03:08:29;;;;;;;;;;;18.70;77.60;;;;;;5009552;28;19974;-79
2022/06/11 03:10:55;;;;;;;;;;;18.60;78.10;;;;;;5025730;28;19921;-79
2022/06/11 03:13:24;;;;;;;;;;;18.60;77.90;;;;;;5007560;28;19913;-78
2022/06/11 03:15:50;;;;;;;;;;;18.50;78.00;;;;;;5007523;28;20023;-80
2022/06/11 03:18:16;;;;;;;;;;;18.60;78.20;;;;;;5010614;28;19976;-79
2022/06/11 03:20:42;;;;;;;;;;;18.50;78.20;;;;;;5009504;28;19924;-80
2022/06/11 03:23:08;;;;;;;;;;;18.50;78.30;;;;;;5025352;28;19909;-80
2022/06/11 03:25:33;;;;;;;;;;;18.40;78.50;;;;;;5025439;28;19925;-80
2022/06/11 03:28:04;;;;;;;;;;;18.50;78.60;;;;;;5022722;28;19925;-79
2022/06/11 03:30:29;;;;;;;;;;;18.30;79.00;;;;;;5021937;28;19917;-80
2022/06/11 03:32:55;;;;;;;;;;;18.30;78.90;;;;;;5007777;28;20480;-80
2022/06/11 03:35:20;;;;;;;;;;;18.20;79.30;;;;;;5009600;28;19921;-80
2022/06/11 03:37:46;;;;;;;;;;;18.20;79.50;;;;;;5028942;28;19920;-80
2022/06/11 03:40:11;;;;;;;;;;;18.20;79.50;;;;;;5023533;28;19940;-80
2022/06/11 03:42:37;;;;;;;;;;;18.20;79.40;;;;;;5028051;28;20336;-79
2022/06/11 03:45:03;;;;;;;;;;;18.20;79.50;;;;;;5030644;28;20573;-79
2022/06/11 03:47:28;;;;;;;;;;;18.20;79.70;;;;;;5026103;28;20479;-79
2022/06/11 03:49:53;;;;;;;;;;;18.10;79.40;;;;;;5005677;28;20399;-79
2022/06/11 03:52:19;;;;;;;;;;;18.10;79.70;;;;;;5025725;28;19932;-81
2022/06/11 03:54:46;;;;;;;;;;;18.10;80.10;;;;;;5022427;28;19914;-79
2022/06/11 03:57:11;;;;;;;;;;;18.00;80.30;;;;;;5011009;28;20051;-80
2022/06/11 03:59:37;;;;;;;;;;;18.00;80.70;;;;;;5012873;28;19913;-79
2022/06/11 04:02:03;;;;;;;;;;;18.00;80.70;;;;;;5025777;28;19936;-80
2022/06/11 04:04:28;;;;;;;;;;;18.00;80.80;;;;;;5011151;28;19921;-80
2022/06/11 04:06:56;;;;;;;;;;;18.00;80.90;;;;;;5028231;28;20512;-80
2022/06/11 04:09:26;;;;;;;;;;;18.00;81.00;;;;;;5005448;28;19917;-80
2022/06/11 04:11:51;;;;;;;;;;;18.00;81.10;;;;;;5025067;28;19984;-80
2022/06/11 04:14:17;;;;;;;;;;;18.00;81.00;;;;;;5026605;28;19944;-80
2022/06/11 04:16:45;;;;;;;;;;;18.00;81.10;;;;;;5028083;28;19917;-79
2022/06/11 04:19:18;;;;;;;;;;;18.00;80.90;;;;;;5011801;28;20499;-79
2022/06/11 04:21:44;;;;;;;;;;;18.10;81.00;;;;;;5010916;28;19945;-80
2022/06/11 04:24:10;;;;;;;;;;;18.10;80.30;;;;;;5025596;28;20428;-80
2022/06/11 04:26:38;;;;;;;;;;;18.10;80.20;;;;;;5010463;28;19913;-80
2022/06/11 04:29:05;;;;;;;;;;;18.10;80.10;;;;;;5009343;28;19921;-81
2022/06/11 04:31:31;;;;;;;;;;;18.20;80.20;;;;;;5001725;28;19996;-80
2022/06/11 04:33:57;;;;;;;;;;;18.20;80.10;;;;;;5025249;28;20322;-80
2022/06/11 04:36:23;;;;;;;;;;;18.30;79.90;;;;;;5008734;28;19913;-80
2022/06/11 04:38:49;;;;;;;;;;;18.30;79.70;;;;;;5019508;28;19917;-80
2022/06/11 04:41:15;;;;;;;;;;;18.30;79.40;;;;;;5021272;28;20316;-80
2022/06/11 04:43:41;;;;;;;;;;;18.40;79.40;;;;;;5027121;28;20288;-80
2022/06/11 04:46:07;;;;;;;;;;;18.40;79.10;;;;;;5013064;28;20289;-80
2022/06/11 04:48:32;;;;;;;;;;;18.50;78.90;;;;;;5027452;28;19913;-80
2022/06/11 04:50:59;;;;;;;;;;;18.50;78.50;;;;;;5026914;28;20019;-80
2022/06/11 04:53:24;;;;;;;;;;;18.50;78.50;;;;;;5028630;28;20004;-80
2022/06/11 04:55:51;;;;;;;;;;;18.60;78.50;;;;;;5027528;28;19976;-80
2022/06/11 04:58:17;;;;;;;;;;;18.60;78.50;;;;;;5027895;28;19924;-80
2022/06/11 05:00:42;;;;;;;;;;;18.70;78.40;;;;;;5023788;28;19914;-79
2022/06/11 05:03:08;;;;;;;;;;;18.70;78.30;;;;;;5026344;28;19916;-78
2022/06/11 05:05:33;;;;;;;;;;;18.80;78.30;;;;;;5026293;28;20395;-80
2022/06/11 05:07:59;;;;;;;;;;;18.80;77.80;;;;;;5012990;28;19941;-79
2022/06/11 05:10:26;;;;;;;;;;;18.90;77.70;;;;;;5025528;28;19924;-80
2022/06/11 05:12:52;;;;;;;;;;;19.00;77.20;;;;;;5004619;28;21127;-79
2022/06/11 05:15:17;;;;;;;;;;;19.00;76.90;;;;;;5026951;28;19917;-80
2022/06/11 05:17:43;;;;;;;;;;;19.00;76.80;;;;;;5009644;28;20139;-80
2022/06/11 05:20:09;;;;;;;;;;;19.10;76.60;;;;;;5021255;28;19981;-76
2022/06/11 05:22:35;;;;;;;;;;;19.10;76.10;;;;;;5009130;28;19955;-79
2022/06/11 05:25:00;;;;;;;;;;;19.10;76.00;;;;;;5010699;28;19917;-80
2022/06/11 05:27:26;;;;;;;;;;;19.20;75.90;;;;;;5032403;28;19924;-80
2022/06/11 05:29:54;;;;;;;;;;;19.30;76.00;;;;;;5012974;28;19913;-79
2022/06/11 05:32:26;;;;;;;;;;;19.30;75.80;;;;;;5022747;28;20366;-79
2022/06/11 05:34:52;;;;;;;;;;;19.30;75.60;;;;;;5017544;28;20000;-81
2022/06/11 05:37:18;;;;;;;;;;;19.40;75.70;;;;;;5035788;28;20058;-79
2022/06/11 05:39:44;;;;;;;;;;;19.40;75.60;;;;;;5020164;28;19941;-80
2022/06/11 05:42:10;;;;;;;;;;;19.50;75.20;;;;;;5029338;28;19913;-81
2022/06/11 05:44:35;;;;;;;;;;;19.60;74.80;;;;;;5016976;28;20378;-79
2022/06/11 05:47:01;;;;;;;;;;;19.60;75.10;;;;;;5028284;28;19921;-80
2022/06/11 05:49:29;;;;;;;;;;;19.60;74.90;;;;;;5027027;28;20020;-81
2022/06/11 05:51:58;;;;;;;;;;;19.90;73.60;;;;;;5028125;28;19992;-79
2022/06/11 05:54:25;;;;;;;;;;;20.10;73.10;;;;;;5027578;28;20008;-78
2022/06/11 05:56:51;;;;;;;;;;;20.30;72.30;;;;;;5025438;28;19928;-80
2022/06/11 05:59:25;;;;;;;;;;;20.40;72.20;;;;;;5008046;28;19992;-81
2022/06/11 06:01:51;;;;;;;;;;;20.50;71.80;;;;;;5023119;28;19984;-79
2022/06/11 06:04:17;;;;;;;;;;;20.50;71.30;;;;;;5025317;28;20013;-80
2022/06/11 06:06:42;;;;;;;;;;;20.60;71.00;;;;;;5026205;28;20325;-81
2022/06/11 06:09:08;;;;;;;;;;;20.60;69.50;;;;;;5031571;28;19937;-79
2022/06/11 06:11:33;;;;;;;;;;;20.40;70.70;;;;;;5030564;28;20091;-79
2022/06/11 06:13:59;;;;;;;;;;;20.40;71.20;;;;;;5018612;28;19913;-78
2022/06/11 06:16:26;;;;;;;;;;;20.30;71.50;;;;;;5035045;28;19917;-79
2022/06/11 06:18:52;;;;;;;;;;;20.20;71.30;;;;;;5025136;28;20361;-79
2022/06/11 06:21:20;;;;;;;;;;;20.30;71.10;;;;;;5031483;28;19981;-82
2022/06/11 06:23:45;;;;;;;;;;;20.30;70.70;;;;;;5014892;28;20293;-79
2022/06/11 06:26:10;;;;;;;;;;;20.20;71.50;;;;;;5031596;28;19917;-78
2022/06/11 06:28:36;;;;;;;;;;;20.20;71.20;;;;;;5029841;28;20431;-80
2022/06/11 06:31:03;;;;;;;;;;;20.20;71.60;;;;;;5032506;28;19952;-80
2022/06/11 06:33:30;;;;;;;;;;;20.40;71.20;;;;;;5027808;28;19936;-78
2022/06/11 06:35:59;;;;;;;;;;;20.40;71.30;;;;;;5006808;28;19913;-82
2022/06/11 06:38:25;;;;;;;;;;;20.40;71.20;;;;;;5032242;28;19920;-79
2022/06/11 06:40:50;;;;;;;;;;;20.40;71.60;;;;;;5017149;28;19917;-78
2022/06/11 06:43:16;;;;;;;;;;;20.50;71.50;;;;;;5026257;28;19920;-78
2022/06/11 06:45:42;;;;;;;;;;;20.50;71.40;;;;;;5013348;28;19917;-80
2022/06/11 06:48:07;;;;;;;;;;;20.70;71.20;;;;;;5026864;28;19913;-76
2022/06/11 06:50:33;;;;;;;;;;;20.70;70.70;;;;;;5012263;28;19913;-78
2022/06/11 06:52:58;;;;;;;;;;;20.60;70.50;;;;;;5028870;28;19920;-79
2022/06/11 06:55:24;;;;;;;;;;;20.60;71.20;;;;;;5023630;28;20012;-81
2022/06/11 06:57:50;;;;;;;;;;;20.70;70.90;;;;;;5021757;28;20376;-80
2022/06/11 07:00:17;;;;;;;;;;;20.70;70.60;;;;;;5024771;28;19997;-79
2022/06/11 07:02:43;;;;;;;;;;;20.70;71.30;;;;;;5027750;28;19967;-78
2022/06/11 07:05:09;;;;;;;;;;;20.80;71.00;;;;;;5019582;28;20439;-77
2022/06/11 07:07:35;;;;;;;;;;;20.80;71.40;;;;;;5011763;28;19922;-79
2022/06/11 07:10:01;;;;;;;;;;;20.80;71.50;;;;;;5028746;28;20709;-78
2022/06/11 07:12:27;;;;;;;;;;;20.80;71.20;;;;;;5006359;28;20519;-77
2022/06/11 07:14:54;;;;;;;;;;;20.90;71.50;;;;;;5021350;28;20409;-78
2022/06/11 07:17:20;;;;;;;;;;;20.90;71.00;;;;;;5015838;28;19944;-77
2022/06/11 07:20:02;;;;;;;;;;;21.00;70.70;;;;;;5029536;28;19992;-78
2022/06/11 07:22:32;;;;;;;;;;;21.10;69.70;;;;;;5027837;28;19917;-78
2022/06/11 07:24:58;;;;;;;;;;;21.10;69.50;;;;;;5032378;28;20524;-78
2022/06/11 07:27:25;;;;;;;;;;;21.10;69.70;;;;;;5026152;28;19920;-78
2022/06/11 07:29:59;;;;;;;;;;;21.20;69.40;;;;;;5026282;28;19939;-76
2022/06/11 07:32:26;;;;;;;;;;;21.10;69.60;;;;;;5023856;28;19913;-79
2022/06/11 07:34:51;;;;;;;;;;;21.10;69.50;;;;;;5033737;28;20000;-81
2022/06/11 07:37:17;;;;;;;;;;;21.10;69.30;;;;;;5027325;28;19949;-77
2022/06/11 07:39:43;;;;;;;;;;;21.00;70.00;;;;;;5010082;28;19917;-78
2022/06/11 07:42:10;;;;;;;;;;;21.10;69.20;;;;;;5054758;22;19932;-80
2022/06/11 07:44:36;;;;;;;;;;;21.10;70.10;;;;;;5024166;28;19972;-80
2022/06/11 07:47:02;;;;;;;;;;;21.10;70.30;;;;;;5014447;28;20062;-81
2022/06/11 07:49:27;;;;;;;;;;;21.30;69.90;;;;;;5013644;28;20361;-83
2022/06/11 07:51:53;;;;;;;;;;;21.50;69.70;;;;;;5028477;28;19921;-79
2022/06/11 07:54:18;;;;;;;;;;;21.40;69.30;;;;;;5016158;28;20059;-85
2022/06/11 07:56:44;;;;;;;;;;;21.50;69.50;;;;;;5018176;28;20043;-80
2022/06/11 07:59:09;;;;;;;;;;;21.60;69.50;;;;;;5027894;28;19917;-79
2022/06/11 08:01:35;;;;;;;;;;;21.60;69.30;;;;;;5009142;28;19913;-83
2022/06/11 08:04:00;;;;;;;;;;;21.50;68.70;;;;;;5010587;28;19919;-80
2022/06/11 08:06:26;;;;;;;;;;;21.60;69.10;;;;;;5016333;28;20499;-82
2022/06/11 08:08:52;;;;;;;;;;;21.60;68.70;;;;;;5030025;28;19917;-79
2022/06/11 08:11:17;;;;;;;;;;;21.50;68.90;;;;;;5010881;28;20000;-80
2022/06/11 08:13:43;;;;;;;;;;;21.60;69.50;;;;;;5000711;28;20307;-80
2022/06/11 08:16:10;;;;;;;;;;;21.70;69.00;;;;;;5025308;28;19975;-79
2022/06/11 08:18:38;;;;;;;;;;;21.70;68.60;;;;;;5008607;28;19948;-81
2022/06/11 08:21:04;;;;;;;;;;;21.80;68.10;;;;;;5029007;28;19920;-79
2022/06/11 08:23:30;;;;;;;;;;;21.80;67.70;;;;;;5014064;28;19914;-80
2022/06/11 08:25:56;;;;;;;;;;;21.70;68.40;;;;;;5022615;28;19909;-79
2022/06/11 08:28:22;;;;;;;;;;;21.70;68.50;;;;;;5012722;28;20410;-79
2022/06/11 08:30:47;;;;;;;;;;;21.70;67.80;;;;;;5025889;28;19917;-80
2022/06/11 08:33:13;;;;;;;;;;;21.70;68.80;;;;;;5015978;28;19967;-80
2022/06/11 08:35:39;;;;;;;;;;;21.80;66.70;;;;;;5017908;28;20354;-79
2022/06/11 08:38:05;;;;;;;;;;;22.10;66.90;;;;;;5022697;28;20349;-79
2022/06/11 08:40:41;;;;;;;;;;;22.30;66.10;;;;;;5008554;28;19913;-81
2022/06/11 08:43:13;;;;;;;;;;;22.30;66.00;;;;;;5011424;28;19916;-78
2022/06/11 08:45:42;;;;;;;;;;;22.20;65.50;;;;;;5029215;28;20389;-79
2022/06/11 08:48:18;;;;;;;;;;;22.20;65.10;;;;;;5021190;28;19917;-82
2022/06/11 08:50:54;;;;;;;;;;;22.40;64.50;;;;;;5003839;28;20525;-81
2022/06/11 08:53:20;;;;;;;;;;;22.40;64.40;;;;;;5019905;28;19976;-83
2022/06/11 08:55:46;;;;;;;;;;;22.50;63.60;;;;;;5006016;28;20009;-81
2022/06/11 08:58:31;;;;;;;;;;;22.60;63.40;;;;;;5025178;28;19913;-83
2022/06/11 09:01:04;;;;;;;;;;;22.60;62.40;;;;;;5011430;28;19967;-81
2022/06/11 09:03:53;;;;;;;;;;;22.70;62.90;;;;;;5026367;28;19920;-81
2022/06/11 09:06:31;;;;;;;;;;;22.80;62.80;;;;;;4989871;28;20335;-80
2022/06/11 09:08:56;;;;;;;;;;;22.90;62.70;;;;;;5017564;28;20374;-80
2022/06/11 09:11:32;;;;;;;;;;;22.80;62.20;;;;;;5023203;28;19925;-86
2022/06/11 09:14:07;;;;;;;;;;;22.80;62.80;;;;;;5024206;28;19913;-83
2022/06/11 09:16:35;;;;;;;;;;;22.80;62.80;;;;;;5028856;28;19923;-82
2022/06/11 09:19:11;;;;;;;;;;;22.60;63.50;;;;;;5014560;28;19913;-82
2022/06/11 09:21:57;;;;;;;;;;;22.50;63.90;;;;;;5028034;28;20459;-83
2022/06/11 09:24:42;;;;;;;;;;;22.40;64.10;;;;;;5029251;28;20009;-83
2022/06/11 09:27:17;;;;;;;;;;;22.10;64.90;;;;;;5025105;28;19917;-83
2022/06/11 09:30:03;;;;;;;;;;;22.20;64.50;;;;;;5027406;28;19979;-82
2022/06/11 09:32:36;;;;;;;;;;;22.40;65.30;;;;;;5026250;28;20498;-84
2022/06/11 09:35:05;;;;;;;;;;;22.70;64.20;;;;;;5015910;28;19909;-83
2022/06/11 09:37:36;;;;;;;;;;;23.00;63.80;;;;;;5021419;28;20391;-85
2022/06/11 09:40:11;;;;;;;;;;;23.30;62.10;;;;;;5025106;28;20007;-84
2022/06/11 09:42:52;;;;;;;;;;;23.30;61.80;;;;;;5026400;28;20315;-84
2022/06/11 09:45:23;;;;;;;;;;;23.20;62.40;;;;;;5015795;28;20289;-84
2022/06/11 09:47:54;;;;;;;;;;;23.20;61.60;;;;;;5033227;28;19999;-82
2022/06/11 09:50:40;;;;;;;;;;;23.00;62.70;;;;;;5031428;28;19927;-84
2022/06/11 09:53:05;;;;;;;;;;;22.80;63.20;;;;;;5017918;28;19971;-84
2022/06/11 09:55:33;;;;;;;;;;;22.80;63.50;;;;;;5035840;28;19913;-86
2022/06/11 09:58:18;;;;;;;;;;;22.90;63.80;;;;;;5014518;28;19929;-85
2022/06/11 10:00:48;;;;;;;;;;;23.00;62.50;;;;;;5018084;28;19909;-84
2022/06/11 10:03:29;;;;;;;;;;;23.20;62.70;;;;;;5023682;28;19939;-86
2022/06/11 10:06:14;;;;;;;;;;;23.30;62.20;;;;;;5027080;28;20400;-84
2022/06/11 10:08:44;;;;;;;;;;;23.50;62.10;;;;;;5006079;28;20388;-84
2022/06/11 10:11:17;;;;;;;;;;;23.60;61.40;;;;;;5021937;28;19913;-86
2022/06/11 10:13:48;;;;;;;;;;;23.60;61.00;;;;;;5032533;28;19995;-84
2022/06/11 10:16:26;;;;;;;;;;;23.70;61.00;;;;;;5008072;28;19917;-85
2022/06/11 10:18:53;;;;;;;;;;;23.60;60.50;;;;;;5037092;28;19925;-84
2022/06/11 10:21:19;;;;;;;;;;;23.50;61.20;;;;;;5020139;28;19968;-88
2022/06/11 10:23:57;;;;;;;;;;;23.50;61.10;;;;;;5030599;28;19972;-85
2022/06/11 10:26:23;;;;;;;;;;;23.70;60.70;;;;;;5014910;28;19962;-86
2022/06/11 10:28:49;;;;;;;;;;;23.80;62.10;;;;;;5034347;28;19917;-86
2022/06/11 10:31:18;;;;;;;;;;;23.50;61.30;;;;;;5023509;28;19967;-84
2022/06/11 10:34:03;;;;;;;;;;;23.20;62.00;;;;;;5019070;28;19920;-85
2022/06/11 10:36:34;;;;;;;;;;;23.00;62.50;;;;;;5027650;28;19960;-85
2022/06/11 10:39:11;;;;;;;;;;;22.70;63.70;;;;;;5022476;28;19913;-85
2022/06/11 10:41:46;;;;;;;;;;;22.90;62.70;;;;;;5044690;28;20460;-85
2022/06/11 10:44:12;;;;;;;;;;;23.00;62.70;;;;;;5031666;28;19921;-86
2022/06/11 10:46:38;;;;;;;;;;;23.00;63.40;;;;;;5028436;28;20012;-86
2022/06/11 10:49:10;;;;;;;;;;;23.20;62.40;;;;;;5028885;28;19913;-83
2022/06/11 10:51:38;;;;;;;;;;;23.20;62.60;;;;;;5038806;28;19925;-84
2022/06/11 10:54:16;;;;;;;;;;;23.30;61.90;;;;;;5023899;28;19913;-86
2022/06/11 10:56:50;;;;;;;;;;;23.30;62.90;;;;;;5020093;28;19913;-86
2022/06/11 10:59:24;;;;;;;;;;;23.40;62.80;;;;;;5013954;28;19989;-87
2022/06/11 11:02:02;;;;;;;;;;;23.50;61.60;;;;;;5023344;28;20003;-85
2022/06/11 11:04:32;;;;;;;;;;;23.50;61.00;;;;;;5027702;28;19913;-81
2022/06/11 11:07:18;;;;;;;;;;;23.60;59.70;;;;;;5017604;28;19913;-84
2022/06/11 11:09:43;;;;;;;;;;;23.60;59.40;;;;;;5018146;28;19923;-80
2022/06/11 11:12:21;;;;;;;;;;;23.70;59.60;;;;;;5034059;28;19917;-81
2022/06/11 11:14:55;;;;;;;;;;;23.60;59.30;;;;;;5013322;28;19920;-81
2022/06/11 11:17:22;;;;;;;;;;;23.60;60.20;;;;;;5016551;28;20609;-82
2022/06/11 11:20:29;;;;;;;;;;;23.60;60.10;;;;;;5020289;28;20051;-82
2022/06/11 11:22:36;;;;;;;;;;;23.60;60.50;;;;;;5035048;28;19917;-84
2022/06/11 11:25:03;;;;;;;;;;;24.00;59.20;;;;;;5014519;28;19928;-82
2022/06/11 11:27:41;;;;;;;;;;;24.00;59.50;;;;;;5023376;28;19913;-84
2022/06/11 11:30:16;;;;;;;;;;;24.20;58.20;;;;;;5033811;28;20020;-83
2022/06/11 11:32:42;;;;;;;;;;;24.40;58.10;;;;;;5022111;28;20432;-83
2022/06/11 11:35:16;;;;;;;;;;;24.90;57.10;;;;;;5026752;28;19916;-83
2022/06/11 11:37:41;;;;;;;;;;;24.80;57.40;;;;;;5016300;28;19913;-82
2022/06/11 11:40:22;;;;;;;;;;;24.80;55.70;;;;;;5007384;28;20330;-83
2022/06/11 11:42:51;;;;;;;;;;;24.90;55.00;;;;;;5018627;28;19947;-82
2022/06/11 11:45:21;;;;;;;;;;;25.00;54.70;;;;;;5030754;28;19928;-83
2022/06/11 11:47:48;;;;;;;;;;;25.20;55.80;;;;;;5026390;28;19917;-82
2022/06/11 11:50:19;;;;;;;;;;;25.00;55.60;;;;;;5031278;28;20007;-83
2022/06/11 11:52:52;;;;;;;;;;;24.90;56.60;;;;;;5031887;28;19913;-83
2022/06/11 11:55:25;;;;;;;;;;;24.80;56.90;;;;;;5019262;28;19920;-83
2022/06/11 11:57:54;;;;;;;;;;;24.90;56.60;;;;;;5014501;28;19937;-83
2022/06/11 12:00:25;;;;;;;;;;;24.60;56.50;;;;;;5029216;28;19968;-87
2022/06/11 12:02:56;;;;;;;;;;;24.40;56.10;;;;;;5017707;28;19920;-83
2022/06/11 12:05:23;;;;;;;;;;;24.10;56.50;;;;;;5024941;28;19957;-84
2022/06/11 12:07:50;;;;;;;;;;;24.10;56.80;;;;;;5023244;28;20357;-79
2022/06/11 12:10:30;;;;;;;;;;;24.10;56.30;;;;;;5026016;28;20381;-82
2022/06/11 12:12:56;;;;;;;;;;;24.30;56.40;;;;;;5036319;28;20365;-82
2022/06/11 12:15:27;;;;;;;;;;;24.30;55.40;;;;;;5013943;28;20012;-83
2022/06/11 12:17:59;;;;;;;;;;;24.50;55.50;;;;;;5024873;28;20373;-84
2022/06/11 12:20:28;;;;;;;;;;;24.60;54.30;;;;;;5014410;28;19924;-83
2022/06/11 12:22:57;;;;;;;;;;;24.70;55.00;;;;;;5029433;28;19913;-84
2022/06/11 12:25:40;;;;;;;;;;;24.60;56.30;;;;;;5029833;28;20413;-83
2022/06/11 12:28:10;;;;;;;;;;;24.60;55.90;;;;;;5012177;28;20407;-83
2022/06/11 12:30:36;;;;;;;;;;;24.60;56.40;;;;;;5008914;28;20938;-81
2022/06/11 12:33:05;;;;;;;;;;;24.60;55.40;;;;;;5013823;28;19913;-83
2022/06/11 12:35:41;;;;;;;;;;;24.60;55.50;;;;;;5013127;28;19913;-81
2022/06/11 12:38:18;;;;;;;;;;;24.60;55.90;;;;;;5028296;28;19913;-81
2022/06/11 12:41:05;;;;;;;;;;;24.50;56.50;;;;;;5013759;28;19931;-83
2022/06/11 12:43:37;;;;;;;;;;;24.30;56.40;;;;;;5024608;28;19932;-81
2022/06/11 12:46:35;;;;;;;;;;;24.30;56.20;;;;;;5021499;28;19917;-81
2022/06/11 12:49:16;;;;;;;;;;;24.50;56.50;;;;;;4990921;28;19913;-82
2022/06/11 12:51:42;;;;;;;;;;;24.70;55.40;;;;;;5022909;28;19921;-81
2022/06/11 12:54:30;;;;;;;;;;;24.90;54.40;;;;;;5000305;28;19925;-83
2022/06/11 12:57:14;;;;;;;;;;;25.10;55.20;;;;;;5018217;28;19921;-83
2022/06/11 12:59:59;;;;;;;;;;;25.30;53.20;;;;;;5018684;28;19912;-82
2022/06/11 13:02:43;;;;;;;;;;;25.20;53.70;;;;;;5019571;28;19924;-81
2022/06/11 13:05:21;;;;;;;;;;;25.30;53.40;;;;;;5021994;28;20078;-83
2022/06/11 13:07:59;;;;;;;;;;;25.30;53.60;;;;;;5011904;23;19931;-82
2022/06/11 13:10:37;;;;;;;;;;;25.30;53.70;;;;;;4973983;28;20119;-84
2022/06/11 13:13:08;;;;;;;;;;;25.30;53.50;;;;;;4975132;28;20216;-82
2022/06/11 13:15:34;;;;;;;;;;;25.40;53.80;;;;;;4975913;28;19924;-82
2022/06/11 13:18:12;;;;;;;;;;;25.40;52.20;;;;;;4976190;28;19909;-81
2022/06/11 13:20:44;;;;;;;;;;;25.30;53.40;;;;;;4993818;28;19944;-86
2022/06/11 13:23:20;;;;;;;;;;;25.40;53.50;;;;;;4977404;28;19913;-82
2022/06/11 13:25:57;;;;;;;;;;;25.50;52.30;;;;;;4980901;28;20136;-86
2022/06/11 13:28:35;;;;;;;;;;;25.40;50.70;;;;;;4995908;28;20084;-83
2022/06/11 13:31:19;;;;;;;;;;;25.40;51.70;;;;;;4972008;28;19917;-84
2022/06/11 13:33:55;;;;;;;;;;;25.40;52.00;;;;;;4959975;28;20162;-82
2022/06/11 13:36:38;;;;;;;;;;;25.40;52.30;;;;;;4973109;28;20457;-81
2022/06/11 13:39:18;;;;;;;;;;;25.40;51.90;;;;;;4985360;28;19909;-83
2022/06/11 13:41:44;;;;;;;;;;;25.30;52.30;;;;;;4981041;28;20107;-82
2022/06/11 13:44:15;;;;;;;;;;;25.20;52.40;;;;;;4978076;28;20792;-83
2022/06/11 13:46:54;;;;;;;;;;;25.30;51.90;;;;;;4969501;28;19981;-83
2022/06/11 13:49:22;;;;;;;;;;;25.30;52.10;;;;;;4988928;28;19909;-84
2022/06/11 13:51:52;;;;;;;;;;;25.40;51.90;;;;;;4991243;28;19945;-83
2022/06/11 13:57:32;;;;;;;;;;;25.60;49.40;;;;;;4990079;28;20574;-84
2022/06/11 14:00:11;;;;;;;;;;;25.70;49.90;;;;;;4976641;28;20290;-83
2022/06/11 14:02:43;;;;;;;;;;;25.90;49.20;;;;;;4970485;28;20684;-84
2022/06/11 14:05:18;;;;;;;;;;;26.00;49.00;;;;;;4972398;28;19909;-84
2022/06/11 14:07:44;;;;;;;;;;;26.00;48.50;;;;;;4916895;28;1805235;-84
2022/06/11 14:10:25;;;;;;;;;;;26.00;48.50;;;;;;4973581;28;20095;-83
2022/06/11 14:12:58;;;;;;;;;;;25.90;49.80;;;;;;4963454;28;19964;-85
2022/06/11 14:15:29;;;;;;;;;;;25.80;50.00;;;;;;4971239;28;19925;-84
2022/06/11 14:17:54;;;;;;;;;;;25.60;49.00;;;;;;4984748;28;20595;-83
2022/06/11 14:20:20;;;;;;;;;;;25.40;49.40;;;;;;5020770;28;20047;-84
2022/06/11 14:22:48;;;;;;;;;;;25.30;50.30;;;;;;5011710;28;20008;-85
2022/06/11 14:25:33;;;;;;;;;;;25.30;50.70;;;;;;5012575;28;19991;-84
2022/06/11 14:28:19;;;;;;;;;;;25.40;50.40;;;;;;5014163;28;19933;-85
2022/06/11 14:30:48;;;;;;;;;;;25.50;48.80;;;;;;5018065;28;19929;-84
2022/06/11 14:33:13;;;;;;;;;;;25.50;50.20;;;;;;5026159;28;19939;-84
2022/06/11 14:35:48;;;;;;;;;;;25.50;49.80;;;;;;5010835;28;20277;-85
2022/06/11 14:38:32;;;;;;;;;;;25.50;48.70;;;;;;5008582;28;19924;-86
2022/06/11 14:41:07;;;;;;;;;;;25.50;48.40;;;;;;5013426;28;19978;-84
2022/06/11 14:43:51;;;;;;;;;;;25.50;49.10;;;;;;5008322;28;19963;-84